createdAt,value
2024-03-16T00:01:37.450Z,99801.84
2024-03-16T00:04:04.925Z,99813.91
2024-03-16T00:06:32.331Z,99808.72
2024-03-16T00:08:59.504Z,99813.91
2024-03-16T00:11:28.695Z,99802.66
2024-03-16T00:13:55.828Z,99807.78
2024-03-16T00:16:22.923Z,99810.31
2024-03-16T00:18:50.195Z,99801.69
2024-03-16T00:21:17.342Z,99810.19
2024-03-16T00:23:44.616Z,99802.31
2024-03-16T00:26:12.984Z,99808.31
2024-03-16T00:28:40.140Z,99803.09
2024-03-16T00:31:07.813Z,99811.66
2024-03-16T00:33:35.128Z,99804.78
2024-03-16T00:36:02.238Z,99804.72
2024-03-16T00:38:30.207Z,99802.97
2024-03-16T00:40:57.689Z,99802.97
2024-03-16T00:43:24.806Z,99796.06
2024-03-16T00:45:52.100Z,99785.72
2024-03-16T00:48:19.230Z,99792.59
2024-03-16T00:50:46.506Z,99784.00
2024-03-16T00:53:13.643Z,99790.88
2024-03-16T00:55:41.058Z,99787.41
2024-03-16T00:58:08.292Z,99782.28
2024-03-16T01:00:35.527Z,99770.28
2024-03-16T01:03:02.718Z,99773.69
2024-03-16T01:05:30.129Z,99766.91
2024-03-16T01:07:57.682Z,99772.91
2024-03-16T01:10:25.226Z,99766.03
2024-03-16T01:12:52.580Z,99760.00
2024-03-16T01:15:22.236Z,99758.31
2024-03-16T01:17:49.539Z,99760.06
2024-03-16T01:20:17.134Z,99751.56
2024-03-16T01:22:44.341Z,99765.34
2024-03-16T01:25:11.613Z,99760.22
2024-03-16T01:27:38.984Z,99751.63
2024-03-16T01:30:06.664Z,99760.28
2024-03-16T01:32:34.100Z,99746.63
2024-03-16T01:35:01.213Z,99753.44
2024-03-16T01:37:28.369Z,99745.81
2024-03-16T01:39:57.136Z,99744.97
2024-03-16T01:42:24.371Z,99751.84
2024-03-16T01:45:21.148Z,99767.34
2024-03-16T01:47:51.015Z,99767.41
2024-03-16T01:50:22.240Z,99753.69
2024-03-16T01:52:49.950Z,99758.03
2024-03-16T01:55:18.103Z,99759.72
2024-03-16T01:57:46.160Z,99756.25
2024-03-16T02:00:13.619Z,99756.22
2024-03-16T02:02:41.240Z,99750.16
2024-03-16T02:05:09.468Z,99757.00
2024-03-16T02:07:38.485Z,99752.72
2024-03-16T02:10:10.558Z,99752.72
2024-03-16T02:12:38.718Z,99745.81
2024-03-16T02:15:06.488Z,99753.50
2024-03-16T02:17:34.232Z,99748.34
2024-03-16T02:20:01.666Z,99743.09
2024-03-16T02:22:28.729Z,99750.00
2024-03-16T02:24:56.351Z,99755.16
2024-03-16T02:27:23.903Z,99749.94
2024-03-16T02:29:50.966Z,99753.31
2024-03-16T02:32:18.136Z,99751.63
2024-03-16T02:34:45.517Z,99756.75
2024-03-16T02:37:12.765Z,99754.19
2024-03-16T02:39:39.997Z,99743.03
2024-03-16T02:42:07.233Z,99761.84
2024-03-16T02:44:34.480Z,99758.41
2024-03-16T02:47:01.680Z,99755.00
2024-03-16T02:49:29.246Z,99770.44
2024-03-16T02:51:56.541Z,99772.16
2024-03-16T02:54:25.086Z,99773.03
2024-03-16T02:56:53.056Z,99773.03
2024-03-16T02:59:20.749Z,99773.94
2024-03-16T03:01:48.012Z,99767.94
2024-03-16T03:04:16.172Z,99760.28
2024-03-16T03:06:44.444Z,99780.00
2024-03-16T03:09:11.660Z,99782.59
2024-03-16T03:11:39.500Z,99761.97
2024-03-16T03:14:10.070Z,99773.97
2024-03-16T03:16:37.167Z,99773.16
2024-03-16T03:19:04.372Z,99775.78
2024-03-16T03:21:33.054Z,99774.06
2024-03-16T03:24:01.174Z,99758.66
2024-03-16T03:26:30.747Z,99770.69
2024-03-16T03:28:58.886Z,99769.00
2024-03-16T03:31:26.424Z,99784.50
2024-03-16T03:33:53.800Z,99781.03
2024-03-16T03:36:21.083Z,99776.81
2024-03-16T03:38:48.836Z,99775.97
2024-03-16T03:41:16.196Z,99774.25
2024-03-16T03:43:48.788Z,99782.88
2024-03-16T03:46:41.623Z,99781.97
2024-03-16T03:49:27.484Z,99784.56
2024-03-16T03:52:15.155Z,99782.88
2024-03-16T03:54:42.294Z,99786.22
2024-03-16T03:57:09.523Z,99789.63
2024-03-16T03:59:36.629Z,99789.63
2024-03-16T04:02:03.792Z,99800.81
2024-03-16T04:04:30.906Z,99794.81
2024-03-16T04:06:58.047Z,99794.75
2024-03-16T04:09:25.186Z,99800.75
2024-03-16T04:11:52.241Z,99796.41
2024-03-16T04:14:20.796Z,99791.25
2024-03-16T04:16:49.596Z,99791.25
2024-03-16T04:19:19.716Z,99782.66
2024-03-16T04:21:51.484Z,99791.25
2024-03-16T04:24:18.706Z,99789.53
2024-03-16T04:26:45.788Z,99789.53
2024-03-16T04:29:12.916Z,99791.25
2024-03-16T04:31:40.059Z,99790.41
2024-03-16T04:34:07.360Z,99785.28
2024-03-16T04:36:34.559Z,99793.00
2024-03-16T04:39:01.705Z,99796.47
2024-03-16T04:41:31.386Z,99793.00
2024-03-16T04:43:59.655Z,99796.47
2024-03-16T04:46:30.197Z,99776.81
2024-03-16T04:48:57.390Z,99794.78
2024-03-16T04:51:24.513Z,99799.91
2024-03-16T04:53:52.076Z,99789.69
2024-03-16T04:56:19.236Z,99799.13
2024-03-16T04:58:46.654Z,99789.75
2024-03-16T05:01:14.940Z,99801.72
2024-03-16T05:03:42.326Z,99802.59
2024-03-16T05:06:09.652Z,99801.78
2024-03-16T05:08:36.868Z,99807.84
2024-03-16T05:11:04.019Z,99803.56
2024-03-16T05:13:33.449Z,99803.59
2024-03-16T05:16:09.212Z,99812.19
2024-03-16T05:18:36.789Z,99813.06
2024-03-16T05:21:04.618Z,99821.72
2024-03-16T05:23:32.124Z,99812.34
2024-03-16T05:26:00.564Z,99815.78
2024-03-16T05:28:28.105Z,99822.69
2024-03-16T05:30:56.256Z,99819.25
2024-03-16T05:33:23.360Z,99807.28
2024-03-16T05:35:50.518Z,99827.00
2024-03-16T05:38:17.613Z,99826.16
2024-03-16T05:40:47.389Z,99817.53
2024-03-16T05:43:14.700Z,99827.00
2024-03-16T05:45:42.147Z,99817.56
2024-03-16T05:48:09.643Z,99829.59
2024-03-16T05:50:37.226Z,99827.88
2024-03-16T05:53:04.578Z,99817.56
2024-03-16T05:55:31.710Z,99827.78
2024-03-16T05:57:58.823Z,99838.13
2024-03-16T06:00:25.900Z,99836.41
2024-03-16T06:02:53.010Z,99838.13
2024-03-16T06:05:20.230Z,99837.25
2024-03-16T06:07:47.279Z,99839.81
2024-03-16T06:10:14.460Z,99833.81
2024-03-16T06:12:41.673Z,99835.50
2024-03-16T06:15:08.976Z,99836.38
2024-03-16T06:17:36.150Z,99838.97
2024-03-16T06:20:05.714Z,99836.50
2024-03-16T06:22:33.134Z,99837.28
2024-03-16T06:25:00.295Z,99842.44
2024-03-16T06:27:27.541Z,99829.63
2024-03-16T06:29:56.554Z,99845.03
2024-03-16T06:32:23.718Z,99854.50
2024-03-16T06:34:51.328Z,99849.31
2024-03-16T06:37:18.768Z,99856.22
2024-03-16T06:39:47.506Z,99843.38
2024-03-16T06:42:14.758Z,99855.38
2024-03-16T06:44:42.033Z,99861.41
2024-03-16T06:47:09.679Z,99868.25
2024-03-16T06:49:36.748Z,99863.13
2024-03-16T06:52:04.087Z,99867.41
2024-03-16T06:54:31.591Z,99864.78
2024-03-16T06:56:58.746Z,99863.88
2024-03-16T06:59:25.893Z,99856.00
2024-03-16T07:01:53.059Z,99851.63
2024-03-16T07:04:20.253Z,99847.13
2024-03-16T07:06:47.503Z,99854.66
2024-03-16T07:09:15.003Z,99851.00
2024-03-16T07:11:44.859Z,99849.00
2024-03-16T07:14:14.400Z,99841.97
2024-03-16T07:16:41.804Z,99853.88
2024-03-16T07:19:08.924Z,99853.81
2024-03-16T07:21:36.351Z,99850.34
2024-03-16T07:24:04.680Z,99857.28
2024-03-16T07:26:31.846Z,99870.19
2024-03-16T07:28:59.491Z,99871.91
2024-03-16T07:31:26.743Z,99864.28
2024-03-16T07:33:54.788Z,99865.91
2024-03-16T07:36:21.965Z,99870.16
2024-03-16T07:38:49.183Z,99876.97
2024-03-16T07:41:16.369Z,99874.38
2024-03-16T07:43:45.608Z,99869.19
2024-03-16T07:46:12.816Z,99877.81
2024-03-16T07:48:40.148Z,99877.88
2024-03-16T07:51:07.402Z,99882.16
2024-03-16T07:53:35.154Z,99880.25
2024-03-16T07:56:02.417Z,99880.91
2024-03-16T07:58:29.597Z,99883.22
2024-03-16T08:00:57.037Z,99878.59
2024-03-16T08:03:24.238Z,99880.06
2024-03-16T08:05:51.381Z,99883.28
2024-03-16T08:08:18.579Z,99882.94
2024-03-16T08:10:45.685Z,99885.22
2024-03-16T08:13:13.029Z,99877.19
2024-03-16T08:15:40.933Z,99875.16
2024-03-16T08:18:08.407Z,99883.28
2024-03-16T08:20:35.818Z,99870.69
2024-03-16T08:23:02.993Z,99883.41
2024-03-16T08:25:31.880Z,99875.63
2024-03-16T08:27:59.579Z,99877.28
2024-03-16T08:30:26.964Z,99881.72
2024-03-16T08:32:54.326Z,99889.59
2024-03-16T08:35:21.664Z,99888.03
2024-03-16T08:37:48.893Z,99886.25
2024-03-16T08:40:17.527Z,99887.00
2024-03-16T08:42:44.918Z,99885.63
2024-03-16T08:45:12.320Z,99884.19
2024-03-16T08:47:39.636Z,99879.31
2024-03-16T08:50:07.386Z,99876.97
2024-03-16T08:52:38.172Z,99878.22
2024-03-16T08:55:06.368Z,99874.34
2024-03-16T08:57:33.761Z,99870.28
2024-03-16T09:00:01.239Z,99874.81
2024-03-16T09:02:28.395Z,99868.09
2024-03-16T09:04:57.227Z,99861.94
2024-03-16T09:07:25.240Z,99872.66
2024-03-16T09:09:54.090Z,99880.03
2024-03-16T09:12:21.323Z,99882.88
2024-03-16T09:14:48.421Z,99878.72
2024-03-16T09:17:15.685Z,99879.81
2024-03-16T09:19:42.747Z,99877.22
2024-03-16T09:22:10.024Z,99883.91
2024-03-16T09:24:37.188Z,99888.41
2024-03-16T09:27:04.601Z,99891.59
2024-03-16T09:29:31.798Z,99870.97
2024-03-16T09:32:00.477Z,99872.59
2024-03-16T09:34:27.589Z,99872.38
2024-03-16T09:36:54.910Z,99870.47
2024-03-16T09:39:27.959Z,99859.97
2024-03-16T09:41:57.351Z,99878.75
